createdAt,value
2022-11-08T00:00:20.087Z,8.63
2022-11-08T00:02:55.153Z,6.35
2022-11-08T00:05:46.110Z,7.47
2022-11-08T00:08:36.610Z,6.35
2022-11-08T00:11:27.260Z,8.05
2022-11-08T00:14:00.602Z,7.25
2022-11-08T00:16:34.073Z,7.38
2022-11-08T00:19:08.699Z,7.53
2022-11-08T00:21:41.937Z,7.88
2022-11-08T00:24:15.339Z,7.65
2022-11-08T00:26:48.666Z,6.43
2022-11-08T00:29:22.137Z,6.75
2022-11-08T00:31:55.388Z,6.53
2022-11-08T00:34:30.189Z,6.15
2022-11-08T00:37:04.130Z,7.18
2022-11-08T00:39:37.609Z,6.60
2022-11-08T00:42:11.215Z,6.03
2022-11-08T00:44:44.431Z,5.72
2022-11-08T00:47:17.709Z,5.88
2022-11-08T00:49:52.343Z,6.63
2022-11-08T00:52:25.723Z,6.35
2022-11-08T00:54:59.145Z,5.35
2022-11-08T00:57:53.545Z,6.63
2022-11-08T01:00:25.913Z,5.40
2022-11-08T01:03:13.058Z,6.15
2022-11-08T01:05:48.206Z,4.70
2022-11-08T01:08:23.591Z,6.75
2022-11-08T01:10:56.831Z,6.38
2022-11-08T01:13:30.734Z,6.18
2022-11-08T01:16:07.988Z,5.97
2022-11-08T01:18:42.764Z,6.38
2022-11-08T01:21:19.004Z,6.40
2022-11-08T01:23:54.266Z,6.22
2022-11-08T01:26:28.893Z,6.75
2022-11-08T01:29:02.294Z,5.78
2022-11-08T01:31:35.735Z,6.78
2022-11-08T01:34:08.965Z,6.45
2022-11-08T01:36:43.762Z,6.70
2022-11-08T01:39:17.399Z,6.82
2022-11-08T01:41:50.628Z,6.13
2022-11-08T01:44:23.871Z,5.43
2022-11-08T01:46:57.165Z,5.70
2022-11-08T01:49:39.051Z,5.30
2022-11-08T01:52:23.763Z,5.30
2022-11-08T01:55:08.826Z,5.65
2022-11-08T01:57:47.956Z,5.10
2022-11-08T02:00:21.680Z,6.30
2022-11-08T02:02:59.471Z,5.22
2022-11-08T02:05:33.057Z,5.68
2022-11-08T02:08:12.442Z,6.10
2022-11-08T02:10:47.769Z,6.00
2022-11-08T02:13:23.443Z,5.88
2022-11-08T02:15:56.879Z,6.30
2022-11-08T02:18:32.921Z,6.95
2022-11-08T02:21:12.923Z,5.00
2022-11-08T02:23:48.718Z,5.38
2022-11-08T02:26:24.450Z,5.90
2022-11-08T02:28:57.933Z,5.80
2022-11-08T02:31:31.156Z,5.57
2022-11-08T02:34:04.420Z,5.75
2022-11-08T02:36:37.690Z,5.90
2022-11-08T02:39:12.355Z,5.72
2022-11-08T02:41:45.635Z,5.78
2022-11-08T02:44:18.934Z,5.95
2022-11-08T02:46:52.352Z,5.97
2022-11-08T02:49:25.614Z,5.60
2022-11-08T02:51:58.837Z,6.18
2022-11-08T02:54:33.731Z,5.30
2022-11-08T02:57:06.979Z,4.97
2022-11-08T02:59:40.395Z,5.63
2022-11-08T03:02:13.719Z,6.43
2022-11-08T03:04:47.276Z,4.80
2022-11-08T03:07:24.653Z,5.13
2022-11-08T03:09:59.628Z,5.40
2022-11-08T03:12:33.169Z,5.07
2022-11-08T03:15:08.148Z,5.63
2022-11-08T03:17:41.811Z,5.07
2022-11-08T03:20:15.051Z,5.25
2022-11-08T03:22:48.366Z,5.65
2022-11-08T03:25:22.978Z,4.93
2022-11-08T03:27:56.427Z,4.97
2022-11-08T03:30:29.736Z,5.75
2022-11-08T03:33:03.009Z,5.18
2022-11-08T03:35:36.241Z,5.35
2022-11-08T03:38:09.671Z,5.47
2022-11-08T03:40:44.638Z,5.50
2022-11-08T03:43:18.062Z,6.57
2022-11-08T03:45:51.283Z,5.18
2022-11-08T03:48:24.967Z,4.85
2022-11-08T03:50:58.214Z,5.20
2022-11-08T03:53:31.783Z,5.57
2022-11-08T03:56:07.302Z,6.28
2022-11-08T03:58:40.719Z,5.50
2022-11-08T04:01:13.995Z,5.88
2022-11-08T04:03:47.330Z,5.90
2022-11-08T04:06:20.764Z,5.53
2022-11-08T04:08:54.024Z,4.82
2022-11-08T04:11:46.255Z,5.43
2022-11-08T04:14:37.554Z,5.32
2022-11-08T04:17:10.794Z,4.85
2022-11-08T04:20:01.382Z,5.18
2022-11-08T04:22:34.633Z,5.38
2022-11-08T04:25:08.829Z,5.40
2022-11-08T04:27:43.441Z,4.90
2022-11-08T04:30:16.705Z,4.30
2022-11-08T04:32:50.113Z,4.93
2022-11-08T04:35:23.401Z,5.20
2022-11-08T04:37:59.725Z,5.18
2022-11-08T04:40:33.040Z,4.93
2022-11-08T04:43:07.687Z,5.07
2022-11-08T04:45:41.696Z,4.72
2022-11-08T04:48:15.044Z,4.38
2022-11-08T04:50:48.814Z,5.80
2022-11-08T04:53:22.304Z,5.10
2022-11-08T04:56:01.220Z,5.40
2022-11-08T04:58:37.620Z,6.57
2022-11-08T05:01:13.544Z,6.22
2022-11-08T05:03:48.518Z,6.38
2022-11-08T05:06:24.052Z,5.57
2022-11-08T05:08:58.847Z,6.68
2022-11-08T05:11:32.368Z,6.25
2022-11-08T05:14:06.977Z,7.25
2022-11-08T05:16:40.309Z,6.15
2022-11-08T05:19:13.653Z,6.57
2022-11-08T05:22:04.781Z,6.70
2022-11-08T05:24:38.132Z,6.20
2022-11-08T05:27:11.536Z,6.80
2022-11-08T05:29:46.163Z,6.07
2022-11-08T05:32:19.421Z,6.00
2022-11-08T05:34:52.915Z,6.50
2022-11-08T05:37:26.153Z,5.40
2022-11-08T05:39:59.556Z,6.35
2022-11-08T05:42:32.794Z,4.70
2022-11-08T05:45:09.658Z,6.60
2022-11-08T05:47:46.420Z,6.47
2022-11-08T05:50:19.810Z,5.70
2022-11-08T05:52:55.627Z,5.63
2022-11-08T05:55:29.667Z,6.72
2022-11-08T05:58:03.171Z,5.50
2022-11-08T06:00:37.917Z,4.90
2022-11-08T06:03:11.377Z,6.32
2022-11-08T06:05:44.642Z,5.93
2022-11-08T06:08:17.883Z,5.30
2022-11-08T06:10:51.286Z,5.25
2022-11-08T06:13:24.570Z,5.78
2022-11-08T06:16:02.755Z,5.72
2022-11-08T06:18:36.412Z,4.78
2022-11-08T06:21:13.545Z,5.55
2022-11-08T06:23:47.343Z,4.97
2022-11-08T06:26:20.653Z,4.75
2022-11-08T06:28:53.935Z,7.20
2022-11-08T06:31:28.584Z,8.50
2022-11-08T06:34:01.891Z,4.97
2022-11-08T06:36:35.237Z,5.70
2022-11-08T06:39:08.541Z,5.78
2022-11-08T06:41:41.841Z,4.80
2022-11-08T06:44:15.340Z,6.90
2022-11-08T06:46:50.091Z,5.40
2022-11-08T06:49:23.924Z,4.93
2022-11-08T06:51:57.233Z,5.03
2022-11-08T06:54:30.533Z,5.47
2022-11-08T06:57:03.856Z,5.47
2022-11-08T06:59:37.095Z,5.97
2022-11-08T07:02:12.414Z,5.30
2022-11-08T07:04:45.856Z,4.68
2022-11-08T07:07:19.471Z,5.25
2022-11-08T07:09:52.787Z,4.82
2022-11-08T07:12:26.123Z,5.20
2022-11-08T07:14:59.389Z,5.13
2022-11-08T07:17:38.462Z,5.43
2022-11-08T07:20:13.133Z,4.53
2022-11-08T07:22:46.426Z,5.20
2022-11-08T07:25:19.713Z,3.80
2022-11-08T07:27:56.133Z,3.58
2022-11-08T07:30:30.106Z,3.65
2022-11-08T07:33:05.636Z,4.00
2022-11-08T07:35:39.250Z,4.05
2022-11-08T07:38:12.487Z,3.60
2022-11-08T07:40:45.819Z,4.43
2022-11-08T07:43:19.138Z,4.10
2022-11-08T07:45:56.741Z,4.30
2022-11-08T07:48:32.519Z,3.70
2022-11-08T07:51:05.961Z,4.28
2022-11-08T07:53:39.271Z,3.80
2022-11-08T07:56:12.650Z,4.85
2022-11-08T07:58:45.970Z,3.67
2022-11-08T08:01:19.270Z,4.10
2022-11-08T08:03:54.027Z,3.97
2022-11-08T08:06:27.400Z,4.47
2022-11-08T08:09:00.660Z,4.00
2022-11-08T08:11:34.091Z,4.53
2022-11-08T08:14:07.493Z,4.88
2022-11-08T08:16:40.932Z,4.90
2022-11-08T08:19:15.678Z,4.70
2022-11-08T08:21:48.968Z,5.13
2022-11-08T08:24:22.504Z,4.95
2022-11-08T08:26:56.074Z,4.93
2022-11-08T08:29:30.049Z,4.47
2022-11-08T08:32:03.455Z,5.32
2022-11-08T08:34:38.154Z,5.40
2022-11-08T08:37:15.355Z,4.63
2022-11-08T08:39:48.812Z,4.53
2022-11-08T08:42:22.088Z,4.47
2022-11-08T08:44:55.975Z,4.82
2022-11-08T08:47:29.700Z,4.20
2022-11-08T08:50:04.549Z,3.97
2022-11-08T08:52:37.872Z,3.88
2022-11-08T08:55:11.351Z,4.18
2022-11-08T08:57:48.801Z,4.03
2022-11-08T09:03:17.153Z,3.85
2022-11-08T09:05:52.088Z,4.05
2022-11-08T09:08:25.889Z,4.45
2022-11-08T09:11:00.754Z,3.90
2022-11-08T09:13:34.059Z,4.28
2022-11-08T09:16:08.125Z,4.75
2022-11-08T09:18:42.029Z,4.75
2022-11-08T09:21:16.953Z,4.68
2022-11-08T09:23:50.342Z,4.38
2022-11-08T09:26:23.669Z,4.22
2022-11-08T09:28:56.963Z,4.85
2022-11-08T09:31:30.262Z,4.18
2022-11-08T09:36:43.086Z,3.67
2022-11-08T09:39:16.543Z,4.00
2022-11-08T09:42:19.194Z,3.78
2022-11-08T09:45:13.073Z,4.60
2022-11-08T09:47:52.877Z,4.28
2022-11-08T09:50:32.523Z,5.07
2022-11-08T09:53:18.603Z,4.50
2022-11-08T09:55:56.200Z,4.15
2022-11-08T09:58:36.542Z,4.25
2022-11-08T10:01:12.967Z,4.95
2022-11-08T10:03:48.922Z,4.82
2022-11-08T10:06:38.790Z,4.78
2022-11-08T10:09:25.908Z,4.60
2022-11-08T10:12:12.351Z,4.47
2022-11-08T10:15:01.398Z,5.53
2022-11-08T10:18:11.829Z,5.25
2022-11-08T10:20:59.031Z,4.22
2022-11-08T10:23:43.748Z,5.93
2022-11-08T10:26:25.809Z,3.97
2022-11-08T10:29:04.232Z,4.13
2022-11-08T10:31:40.002Z,4.75
2022-11-08T10:34:16.816Z,4.85
2022-11-08T10:36:54.608Z,4.90
2022-11-08T10:39:32.418Z,4.88
2022-11-08T10:42:12.452Z,5.22
2022-11-08T10:44:45.945Z,4.75
2022-11-08T10:47:24.657Z,4.82
2022-11-08T10:50:03.724Z,4.00
2022-11-08T10:52:43.283Z,5.65
2022-11-08T10:55:28.110Z,5.57
2022-11-08T10:58:02.767Z,5.57
2022-11-08T11:00:36.635Z,3.83
2022-11-08T11:03:28.978Z,4.70
2022-11-08T11:06:03.854Z,3.95
2022-11-08T11:08:50.662Z,4.32
2022-11-08T11:11:27.541Z,4.25
2022-11-08T11:14:16.317Z,3.83
2022-11-08T11:17:03.804Z,4.28
2022-11-08T11:19:37.366Z,5.38
2022-11-08T11:22:12.110Z,4.53
2022-11-08T11:24:50.812Z,3.33
2022-11-08T11:27:28.723Z,3.13
2022-11-08T11:30:24.884Z,4.03
2022-11-08T11:33:01.068Z,3.65
2022-11-08T11:35:45.761Z,3.58
2022-11-08T11:38:29.669Z,3.85
2022-11-08T11:41:11.107Z,4.13
2022-11-08T11:43:48.880Z,3.72
2022-11-08T11:46:28.730Z,3.85
2022-11-08T11:49:05.600Z,4.45
2022-11-08T11:51:39.018Z,3.70
2022-11-08T11:54:16.588Z,3.33
2022-11-08T11:56:57.332Z,3.55
2022-11-08T11:59:59.184Z,3.58
2022-11-08T12:03:14.676Z,4.28
2022-11-08T12:06:13.057Z,3.90
2022-11-08T12:08:59.534Z,3.88
2022-11-08T12:11:45.687Z,4.90
2022-11-08T12:14:38.869Z,4.63
2022-11-08T12:17:28.000Z,5.32
2022-11-08T12:20:22.785Z,4.22
2022-11-08T12:23:12.784Z,4.57
2022-11-08T12:25:53.721Z,3.70
2022-11-08T12:28:47.158Z,4.82
2022-11-08T12:31:28.239Z,4.22
2022-11-08T12:34:18.694Z,4.63
2022-11-08T12:37:06.546Z,4.82
2022-11-08T12:39:46.956Z,3.88
2022-11-08T12:42:47.733Z,4.25
2022-11-08T12:45:29.802Z,4.60
2022-11-08T12:48:13.164Z,4.47
2022-11-08T12:50:58.838Z,4.07
2022-11-08T12:53:51.493Z,4.93
2022-11-08T12:56:30.928Z,4.70
2022-11-08T12:59:05.597Z,5.10
2022-11-08T13:01:38.973Z,5.28
2022-11-08T13:04:31.438Z,5.18
2022-11-08T13:07:13.064Z,5.50
2022-11-08T13:09:54.681Z,5.55
2022-11-08T13:12:36.769Z,5.75
2022-11-08T13:15:18.077Z,4.82
2022-11-08T13:18:25.302Z,5.60
2022-11-08T13:20:58.604Z,6.50
2022-11-08T13:23:33.165Z,5.18
2022-11-08T13:26:22.245Z,5.05
2022-11-08T13:28:55.573Z,5.15
2022-11-08T13:31:47.062Z,4.93
2022-11-08T13:34:37.476Z,7.35
2022-11-08T13:37:35.691Z,7.20
2022-11-08T13:40:23.836Z,6.15
2022-11-08T13:43:14.905Z,5.38
2022-11-08T13:45:49.332Z,4.95
2022-11-08T13:49:05.312Z,4.80
2022-11-08T13:51:39.098Z,5.03
2022-11-08T13:54:52.025Z,7.00
2022-11-08T13:58:00.939Z,5.18
2022-11-08T14:00:43.771Z,6.05
2022-11-08T14:03:50.365Z,6.00
2022-11-08T14:06:30.820Z,5.47
2022-11-08T14:09:13.517Z,5.07
2022-11-08T14:11:55.485Z,5.60
2022-11-08T14:14:44.277Z,6.07
2022-11-08T14:17:37.753Z,6.55
2022-11-08T14:20:31.425Z,5.95
2022-11-08T14:23:18.731Z,6.63
2022-11-08T14:25:55.763Z,6.90
2022-11-08T14:28:31.158Z,6.82
2022-11-08T14:31:08.486Z,6.60
2022-11-08T14:33:43.710Z,6.13
2022-11-08T14:36:18.438Z,6.28
2022-11-08T14:38:58.404Z,7.50
2022-11-08T14:41:33.836Z,6.18
2022-11-08T14:44:13.424Z,8.00
2022-11-08T14:46:50.222Z,10.32
2022-11-08T14:49:32.166Z,8.02
2022-11-08T14:52:15.601Z,8.52
2022-11-08T14:54:49.848Z,7.68
2022-11-08T14:57:31.498Z,6.95
2022-11-08T15:00:14.808Z,7.20
2022-11-08T15:02:52.543Z,8.07
2022-11-08T15:05:32.617Z,5.85
2022-11-08T15:08:19.216Z,6.50
2022-11-08T15:10:58.058Z,6.35
2022-11-08T15:13:35.162Z,7.00
2022-11-08T15:16:09.733Z,11.02
2022-11-08T15:18:45.620Z,9.95
2022-11-08T15:21:28.644Z,11.43
2022-11-08T15:24:14.340Z,10.82
2022-11-08T15:27:08.558Z,10.00
2022-11-08T15:29:53.238Z,9.38
2022-11-08T15:32:27.294Z,9.20
2022-11-08T15:35:02.104Z,8.25
2022-11-08T15:37:38.669Z,7.80
2022-11-08T15:40:20.036Z,8.60
2022-11-08T15:42:53.782Z,7.20
2022-11-08T15:45:32.104Z,6.68
2022-11-08T15:48:20.874Z,8.13
2022-11-08T15:50:56.818Z,7.88
2022-11-08T15:53:30.319Z,9.13
2022-11-08T15:56:05.449Z,11.68
2022-11-08T15:58:40.094Z,11.13
2022-11-08T16:01:18.992Z,12.10
2022-11-08T16:03:52.674Z,13.68
2022-11-08T16:06:27.586Z,11.88
2022-11-08T16:09:00.992Z,11.20
2022-11-08T16:11:34.750Z,11.40
2022-11-08T16:14:14.569Z,11.68
2022-11-08T16:16:48.012Z,11.07
2022-11-08T16:19:22.609Z,12.65
2022-11-08T16:21:57.263Z,11.65
2022-11-08T16:24:30.502Z,12.45
2022-11-08T16:27:03.801Z,8.95
2022-11-08T16:29:37.170Z,11.13
2022-11-08T16:32:11.692Z,15.95
2022-11-08T16:34:45.027Z,15.50
2022-11-08T16:37:19.767Z,16.17
2022-11-08T16:39:53.045Z,16.92
2022-11-08T16:42:27.030Z,16.27
2022-11-08T16:45:00.385Z,17.50
2022-11-08T16:47:34.992Z,14.55
2022-11-08T16:50:14.708Z,13.75
2022-11-08T16:52:49.417Z,13.90
2022-11-08T16:55:24.522Z,12.13
2022-11-08T16:57:57.786Z,11.85
2022-11-08T17:00:31.081Z,10.70
2022-11-08T17:03:04.742Z,10.85
2022-11-08T17:05:38.049Z,9.75
2022-11-08T17:08:12.784Z,10.63
2022-11-08T17:10:46.071Z,8.90
2022-11-08T17:13:20.912Z,8.48
2022-11-08T17:15:56.384Z,11.50
2022-11-08T17:18:29.767Z,11.73
2022-11-08T17:21:29.931Z,10.57
2022-11-08T17:24:00.926Z,10.27
2022-11-08T17:26:34.196Z,11.95
2022-11-08T17:29:08.194Z,11.57
2022-11-08T17:31:41.588Z,11.65
2022-11-08T17:34:14.974Z,14.52
2022-11-08T17:36:48.792Z,20.10
2022-11-08T17:39:23.468Z,18.35
2022-11-08T17:41:56.824Z,21.33
2022-11-08T17:44:30.573Z,24.23
2022-11-08T17:47:04.004Z,17.75
2022-11-08T17:49:42.713Z,17.63
2022-11-08T17:52:17.254Z,17.92
2022-11-08T17:54:53.198Z,15.48
2022-11-08T17:57:26.667Z,16.58
2022-11-08T18:00:00.025Z,16.42
2022-11-08T18:02:34.707Z,15.23
2022-11-08T18:05:08.684Z,13.18
2022-11-08T18:07:41.948Z,13.40
2022-11-08T18:10:17.016Z,19.38
2022-11-08T18:12:50.265Z,16.30
2022-11-08T18:15:23.574Z,15.20
2022-11-08T18:17:56.840Z,16.67
2022-11-08T18:23:05.073Z,17.33
2022-11-08T18:25:40.141Z,16.20
2022-11-08T18:28:14.002Z,17.75
2022-11-08T18:30:47.749Z,17.63
2022-11-08T18:33:22.405Z,19.95
2022-11-08T18:35:56.063Z,19.67
2022-11-08T18:38:29.401Z,15.18
2022-11-08T18:41:04.599Z,19.90
2022-11-08T18:43:37.977Z,16.70
2022-11-08T18:46:14.487Z,16.10
2022-11-08T18:48:48.174Z,17.80
2022-11-08T18:51:22.606Z,16.60
2022-11-08T18:53:56.064Z,16.27
2022-11-08T18:56:30.845Z,13.73
2022-11-08T18:59:04.106Z,15.23
2022-11-08T19:01:37.477Z,14.25
2022-11-08T19:04:10.868Z,14.48
2022-11-08T19:06:44.372Z,15.50
2022-11-08T19:09:18.061Z,19.27
2022-11-08T19:11:53.643Z,16.23
2022-11-08T19:14:27.203Z,12.57
2022-11-08T19:17:00.559Z,14.10
2022-11-08T19:19:33.929Z,13.43
2022-11-08T19:22:07.232Z,15.27
2022-11-08T19:24:40.538Z,15.98
2022-11-08T19:27:15.296Z,14.23
2022-11-08T19:29:48.651Z,15.48
2022-11-08T19:32:23.304Z,24.20
2022-11-08T19:34:56.623Z,28.25
2022-11-08T19:37:30.136Z,23.85
2022-11-08T19:40:03.504Z,29.33
2022-11-08T19:42:38.276Z,34.72
2022-11-08T19:45:12.603Z,31.48
2022-11-08T19:47:48.740Z,29.65
2022-11-08T19:50:22.684Z,28.63
2022-11-08T19:52:56.397Z,30.80
2022-11-08T19:55:30.238Z,40.30
2022-11-08T19:58:05.665Z,34.72
2022-11-08T20:00:39.854Z,33.50
2022-11-08T20:03:14.202Z,46.80
2022-11-08T20:05:51.265Z,46.38
2022-11-08T20:08:28.592Z,39.38
2022-11-08T20:11:13.760Z,37.75
2022-11-08T20:13:49.881Z,43.78
2022-11-08T20:16:27.655Z,49.17
2022-11-08T20:19:04.754Z,42.95
2022-11-08T20:21:42.571Z,39.22
2022-11-08T20:24:17.279Z,38.47
2022-11-08T20:26:50.617Z,35.33
2022-11-08T20:29:25.557Z,40.13
2022-11-08T20:32:00.277Z,35.03
2022-11-08T20:34:38.627Z,40.03
2022-11-08T20:37:14.477Z,37.03
2022-11-08T20:39:47.838Z,32.20
2022-11-08T20:42:22.976Z,35.22
2022-11-08T20:44:57.893Z,34.03
2022-11-08T20:47:31.476Z,44.03
2022-11-08T20:50:05.203Z,51.83
2022-11-08T20:52:38.511Z,42.03
2022-11-08T20:55:11.805Z,41.03
2022-11-08T20:57:45.768Z,33.33
2022-11-08T21:00:37.963Z,36.08
2022-11-08T21:03:18.844Z,33.63
2022-11-08T21:05:53.461Z,50.15
2022-11-08T21:11:22.011Z,25.42
2022-11-08T21:13:55.594Z,28.27
2022-11-08T21:16:38.304Z,29.63
2022-11-08T21:19:21.455Z,25.45
2022-11-08T21:22:15.010Z,26.65
2022-11-08T21:24:49.469Z,47.72
2022-11-08T21:27:29.392Z,30.00
2022-11-08T21:30:03.537Z,31.42
2022-11-08T21:32:38.407Z,27.38
2022-11-08T21:35:11.869Z,24.85
2022-11-08T21:37:45.343Z,41.85
2022-11-08T21:40:19.034Z,40.38
2022-11-08T21:42:52.636Z,37.92
2022-11-08T21:45:26.181Z,36.22
2022-11-08T21:48:01.177Z,49.00
2022-11-08T21:50:35.413Z,50.33
2022-11-08T21:53:09.515Z,50.85
2022-11-08T21:55:42.969Z,38.95
2022-11-08T21:58:16.671Z,44.63
2022-11-08T22:00:51.760Z,36.15
2022-11-08T22:03:26.643Z,45.38
2022-11-08T22:06:00.161Z,38.55
2022-11-08T22:08:33.621Z,40.72
2022-11-08T22:11:07.338Z,34.63
2022-11-08T22:13:40.852Z,39.33
2022-11-08T22:16:14.374Z,36.28
2022-11-08T22:19:06.002Z,32.05
2022-11-08T22:21:40.424Z,35.10
2022-11-08T22:24:17.297Z,36.53
2022-11-08T22:26:52.261Z,31.60
2022-11-08T22:29:25.866Z,34.25
2022-11-08T22:31:59.454Z,37.67
2022-11-08T22:34:34.279Z,33.80
2022-11-08T22:37:07.895Z,27.90
2022-11-08T22:39:41.335Z,24.42
2022-11-08T22:42:15.157Z,30.75
2022-11-08T22:44:48.583Z,32.38
2022-11-08T22:47:22.552Z,23.77
2022-11-08T22:49:59.244Z,24.00
2022-11-08T22:52:32.705Z,22.80
2022-11-08T22:55:07.068Z,28.02
2022-11-08T22:57:40.689Z,33.38
2022-11-08T23:00:15.812Z,27.65
2022-11-08T23:02:49.358Z,33.42
2022-11-08T23:05:24.417Z,29.08
2022-11-08T23:07:57.859Z,28.25
2022-11-08T23:10:31.401Z,31.35
2022-11-08T23:13:22.140Z,26.65
2022-11-08T23:16:14.392Z,22.60
2022-11-08T23:19:08.271Z,23.48
2022-11-08T23:22:00.382Z,22.30
2022-11-08T23:24:34.221Z,16.55
2022-11-08T23:27:25.596Z,18.98
2022-11-08T23:30:16.739Z,22.45
2022-11-08T23:32:51.584Z,20.08
2022-11-08T23:35:25.078Z,18.30
2022-11-08T23:37:59.888Z,23.55
2022-11-08T23:40:51.427Z,25.52
2022-11-08T23:43:42.264Z,20.40
2022-11-08T23:46:15.548Z,20.63
2022-11-08T23:48:48.867Z,18.92
2022-11-08T23:51:22.125Z,18.63
2022-11-08T23:53:57.266Z,17.95
2022-11-08T23:56:30.550Z,17.33
2022-11-08T23:59:03.894Z,18.38
